sensor_id;sensor_type;location;lat;lon;timestamp;pressure;altitude;pressure_sealevel;temperature;humidity
6413;BME280;3239;48.714;9.472;2023-05-10T00:02:10;98171.25;;;14.58;100.00
6413;BME280;3239;48.714;9.472;2023-05-10T00:04:35;98165.94;;;14.45;100.00
6413;BME280;3239;48.714;9.472;2023-05-10T00:07:01;98176.97;;;14.53;100.00
6413;BME280;3239;48.714;9.472;2023-05-10T00:09:27;98178.81;;;14.58;100.00
6413;BME280;3239;48.714;9.472;2023-05-10T00:11:53;98182.28;;;14.43;100.00
6413;BME280;3239;48.714;9.472;2023-05-10T00:14:18;98191.28;;;14.44;100.00
6413;BME280;3239;48.714;9.472;2023-05-10T00:16:44;98192.38;;;14.48;100.00
6413;BME280;3239;48.714;9.472;2023-05-10T00:19:10;98193.50;;;14.53;100.00
6413;BME280;3239;48.714;9.472;2023-05-10T00:21:36;98197.75;;;14.54;100.00
6413;BME280;3239;48.714;9.472;2023-05-10T00:24:02;98206.56;;;14.52;100.00
6413;BME280;3239;48.714;9.472;2023-05-10T00:26:28;98200.66;;;14.48;100.00
6413;BME280;3239;48.714;9.472;2023-05-10T00:28:53;98208.75;;;14.46;100.00
6413;BME280;3239;48.714;9.472;2023-05-10T00:31:19;98212.06;;;14.45;100.00
6413;BME280;3239;48.714;9.472;2023-05-10T00:33:45;98218.84;;;14.44;100.00
6413;BME280;3239;48.714;9.472;2023-05-10T00:36:10;98221.06;;;14.45;100.00
6413;BME280;3239;48.714;9.472;2023-05-10T00:38:36;98222.72;;;14.48;100.00
6413;BME280;3239;48.714;9.472;2023-05-10T00:41:02;98231.56;;;14.54;100.00
6413;BME280;3239;48.714;9.472;2023-05-10T00:43:28;98234.50;;;14.56;100.00
6413;BME280;3239;48.714;9.472;2023-05-10T00:45:54;98236.34;;;14.54;100.00
6413;BME280;3239;48.714;9.472;2023-05-10T00:48:20;98239.47;;;14.50;100.00
6413;BME280;3239;48.714;9.472;2023-05-10T00:50:46;98242.94;;;14.51;100.00
6413;BME280;3239;48.714;9.472;2023-05-10T00:53:12;98248.78;;;14.32;100.00
6413;BME280;3239;48.714;9.472;2023-05-10T00:55:38;98241.78;;;14.31;100.00
6413;BME280;3239;48.714;9.472;2023-05-10T00:58:04;98241.78;;;14.31;100.00
6413;BME280;3239;48.714;9.472;2023-05-10T01:00:31;98240.78;;;14.14;100.00
6413;BME280;3239;48.714;9.472;2023-05-10T01:02:58;98236.78;;;14.15;100.00
6413;BME280;3239;48.714;9.472;2023-05-10T01:05:24;98236.34;;;14.03;100.00
6413;BME280;3239;48.714;9.472;2023-05-10T01:07:50;98236.31;;;13.96;100.00
6413;BME280;3239;48.714;9.472;2023-05-10T01:10:16;98228.22;;;13.90;100.00
6413;BME280;3239;48.714;9.472;2023-05-10T01:12:44;98220.13;;;13.85;100.00
6413;BME280;3239;48.714;9.472;2023-05-10T01:15:11;98220.47;;;13.81;100.00
6413;BME280;3239;48.714;9.472;2023-05-10T01:17:39;98216.09;;;13.86;100.00
6413;BME280;3239;48.714;9.472;2023-05-10T01:20:07;98213.81;;;13.69;100.00
6413;BME280;3239;48.714;9.472;2023-05-10T01:23:19;98208.91;;;13.75;100.00
6413;BME280;3239;48.714;9.472;2023-05-10T01:26:14;98204.09;;;13.76;100.00
6413;BME280;3239;48.714;9.472;2023-05-10T01:32:49;98194.38;;;13.75;100.00
6413;BME280;3239;48.714;9.472;2023-05-10T01:35:43;98205.34;;;13.67;100.00
6413;BME280;3239;48.714;9.472;2023-05-10T01:41:36;98202.06;;;13.69;100.00
6413;BME280;3239;48.714;9.472;2023-05-10T01:46:40;98195.81;;;13.68;100.00
6413;BME280;3239;48.714;9.472;2023-05-10T01:49:18;98197.41;;;13.56;100.00
6413;BME280;3239;48.714;9.472;2023-05-10T01:51:49;98196.47;;;13.54;100.00
6413;BME280;3239;48.714;9.472;2023-05-10T01:54:20;98197.56;;;13.51;100.00
6413;BME280;3239;48.714;9.472;2023-05-10T01:56:52;98196.47;;;13.54;100.00
6413;BME280;3239;48.714;9.472;2023-05-10T01:59:21;98198.47;;;13.46;100.00
6413;BME280;3239;48.714;9.472;2023-05-10T02:01:48;98196.31;;;13.52;100.00
6413;BME280;3239;48.714;9.472;2023-05-10T02:04:17;98195.94;;;13.55;100.00
6413;BME280;3239;48.714;9.472;2023-05-10T02:06:44;98196.47;;;13.54;100.00
6413;BME280;3239;48.714;9.472;2023-05-10T02:09:11;98198.84;;;13.50;100.00
6413;BME280;3239;48.714;9.472;2023-05-10T02:11:41;98192.72;;;13.36;100.00
6413;BME280;3239;48.714;9.472;2023-05-10T02:14:10;98196.34;;;13.31;100.00
6413;BME280;3239;48.714;9.472;2023-05-10T02:16:36;98190.31;;;13.33;100.00
6413;BME280;3239;48.714;9.472;2023-05-10T02:19:03;98203.53;;;13.34;100.00
6413;BME280;3239;48.714;9.472;2023-05-10T02:21:30;98200.03;;;13.34;100.00
6413;BME280;3239;48.714;9.472;2023-05-10T02:23:58;98198.38;;;13.31;100.00
6413;BME280;3239;48.714;9.472;2023-05-10T02:26:25;98199.84;;;13.32;100.00
6413;BME280;3239;48.714;9.472;2023-05-10T02:28:53;98206.06;;;13.32;100.00
6413;BME280;3239;48.714;9.472;2023-05-10T02:31:20;98204.59;;;13.31;100.00
6413;BME280;3239;48.714;9.472;2023-05-10T02:33:48;98207.94;;;13.37;100.00
6413;BME280;3239;48.714;9.472;2023-05-10T02:36:15;98212.50;;;13.35;100.00
6413;BME280;3239;48.714;9.472;2023-05-10T02:38:43;98216.72;;;13.28;100.00
6413;BME280;3239;48.714;9.472;2023-05-10T02:41:10;98213.22;;;13.28;100.00
6413;BME280;3239;48.714;9.472;2023-05-10T02:43:38;98215.84;;;13.33;100.00
6413;BME280;3239;48.714;9.472;2023-05-10T02:46:05;98208.50;;;13.36;100.00
6413;BME280;3239;48.714;9.472;2023-05-10T02:48:31;98217.31;;;13.34;100.00
6413;BME280;3239;48.714;9.472;2023-05-10T02:51:04;98216.56;;;13.34;100.00
6413;BME280;3239;48.714;9.472;2023-05-10T02:53:33;98218.75;;;13.35;100.00
6413;BME280;3239;48.714;9.472;2023-05-10T02:56:04;98223.53;;;13.35;100.00
6413;BME280;3239;48.714;9.472;2023-05-10T02:58:32;98224.81;;;13.34;100.00
6413;BME280;3239;48.714;9.472;2023-05-10T03:00:59;98220.59;;;13.33;100.00
6413;BME280;3239;48.714;9.472;2023-05-10T03:03:25;98218.19;;;13.29;100.00
6413;BME280;3239;48.714;9.472;2023-05-10T03:05:51;98219.66;;;13.30;100.00
6413;BME280;3239;48.714;9.472;2023-05-10T03:08:19;98222.22;;;13.28;100.00
6413;BME280;3239;48.714;9.472;2023-05-10T03:11:02;98231.53;;;13.25;100.00
6413;BME280;3239;48.714;9.472;2023-05-10T03:13:54;98232.47;;;13.28;100.00
6413;BME280;3239;48.714;9.472;2023-05-10T03:16:41;98228.06;;;13.25;100.00
6413;BME280;3239;48.714;9.472;2023-05-10T03:19:43;98242.59;;;13.33;100.00
6413;BME280;3239;48.714;9.472;2023-05-10T03:22:13;98235.75;;;13.26;100.00
6413;BME280;3239;48.714;9.472;2023-05-10T03:24:42;98246.56;;;13.24;100.00
6413;BME280;3239;48.714;9.472;2023-05-10T03:27:08;98248.56;;;13.24;100.00
6413;BME280;3239;48.714;9.472;2023-05-10T03:29:36;98240.53;;;13.26;100.00
6413;BME280;3239;48.714;9.472;2023-05-10T03:32:03;98250.63;;;13.23;100.00
6413;BME280;3239;48.714;9.472;2023-05-10T03:34:30;98246.41;;;13.22;100.00
6413;BME280;3239;48.714;9.472;2023-05-10T03:36:57;98257.41;;;13.22;100.00
6413;BME280;3239;48.714;9.472;2023-05-10T03:39:22;98259.75;;;13.18;100.00
6413;BME280;3239;48.714;9.472;2023-05-10T03:41:48;98257.88;;;13.13;100.00
6413;BME280;3239;48.714;9.472;2023-05-10T03:44:14;98255.66;;;13.12;100.00
6413;BME280;3239;48.714;9.472;2023-05-10T03:46:40;98260.22;;;13.09;100.00
6413;BME280;3239;48.714;9.472;2023-05-10T03:49:05;98263.84;;;13.04;100.00
6413;BME280;3239;48.714;9.472;2023-05-10T03:51:31;98264.06;;;13.06;100.00
6413;BME280;3239;48.714;9.472;2023-05-10T03:53:57;98262.38;;;13.03;100.00
6413;BME280;3239;48.714;9.472;2023-05-10T03:56:22;98264.72;;;12.99;100.00
6413;BME280;3239;48.714;9.472;2023-05-10T03:58:48;98270.44;;;13.01;100.00
6413;BME280;3239;48.714;9.472;2023-05-10T04:01:14;98270.75;;;12.98;100.00
6413;BME280;3239;48.714;9.472;2023-05-10T04:03:40;98274.44;;;13.00;100.00
6413;BME280;3239;48.714;9.472;2023-05-10T04:06:06;98273.91;;;13.02;100.00
6413;BME280;3239;48.714;9.472;2023-05-10T04:08:33;98274.13;;;13.04;100.00
6413;BME280;3239;48.714;9.472;2023-05-10T04:11:11;98277.47;;;13.10;100.00
6413;BME280;3239;48.714;9.472;2023-05-10T04:13:37;98288.06;;;13.06;100.00
6413;BME280;3239;48.714;9.472;2023-05-10T04:16:04;98291.56;;;13.06;100.00
6413;BME280;3239;48.714;9.472;2023-05-10T04:18:30;98301.66;;;13.11;100.00
6413;BME280;3239;48.714;9.472;2023-05-10T04:20:55;98302.81;;;13.16;100.00
6413;BME280;3239;48.714;9.472;2023-05-10T04:23:21;98307.22;;;13.19;100.00
6413;BME280;3239;48.714;9.472;2023-05-10T04:25:47;98314.94;;;13.20;100.00
6413;BME280;3239;48.714;9.472;2023-05-10T04:28:13;98310.72;;;13.19;100.00
6413;BME280;3239;48.714;9.472;2023-05-10T04:30:38;98304.63;;;13.13;100.00
6413;BME280;3239;48.714;9.472;2023-05-10T04:33:04;98309.19;;;13.11;100.00
6413;BME280;3239;48.714;9.472;2023-05-10T04:35:30;98315.50;;;13.19;100.00
6413;BME280;3239;48.714;9.472;2023-05-10T04:37:56;98327.31;;;13.27;100.00
6413;BME280;3239;48.714;9.472;2023-05-10T04:40:21;98325.50;;;13.29;100.00
6413;BME280;3239;48.714;9.472;2023-05-10T04:42:47;98333.69;;;13.22;100.00
6413;BME280;3239;48.714;9.472;2023-05-10T04:45:13;98352.78;;;13.27;100.00
6413;BME280;3239;48.714;9.472;2023-05-10T04:47:42;98352.19;;;13.21;100.00
6413;BME280;3239;48.714;9.472;2023-05-10T04:50:07;98356.50;;;13.09;100.00
6413;BME280;3239;48.714;9.472;2023-05-10T04:52:33;98361.59;;;13.05;100.00
6413;BME280;3239;48.714;9.472;2023-05-10T04:54:59;98364.94;;;13.11;100.00
6413;BME280;3239;48.714;9.472;2023-05-10T04:57:25;98368.63;;;13.14;100.00
6413;BME280;3239;48.714;9.472;2023-05-10T04:59:50;98371.78;;;13.18;100.00
6413;BME280;3239;48.714;9.472;2023-05-10T05:02:16;98375.16;;;13.24;100.00
6413;BME280;3239;48.714;9.472;2023-05-10T05:04:42;98384.06;;;13.37;100.00
6413;BME280;3239;48.714;9.472;2023-05-10T05:07:08;98385.22;;;13.42;100.00
6413;BME280;3239;48.714;9.472;2023-05-10T05:09:33;98392.31;;;13.37;100.00
6413;BME280;3239;48.714;9.472;2023-05-10T05:11:59;98383.69;;;13.33;100.00
6413;BME280;3239;48.714;9.472;2023-05-10T05:14:25;98392.53;;;13.39;100.00
6413;BME280;3239;48.714;9.472;2023-05-10T05:16:52;98386.38;;;13.26;100.00
6413;BME280;3239;48.714;9.472;2023-05-10T05:19:18;98379.50;;;13.19;100.00
6413;BME280;3239;48.714;9.472;2023-05-10T05:21:44;98378.44;;;13.22;100.00
6413;BME280;3239;48.714;9.472;2023-05-10T05:24:10;98374.56;;;13.38;100.00
6413;BME280;3239;48.714;9.472;2023-05-10T05:26:37;98381.44;;;13.52;100.00
6413;BME280;3239;48.714;9.472;2023-05-10T05:29:04;98373.78;;;13.58;100.00
6413;BME280;3239;48.714;9.472;2023-05-10T05:31:29;98373.47;;;13.62;100.00
6413;BME280;3239;48.714;9.472;2023-05-10T05:33:55;98372.28;;;13.78;100.00
6413;BME280;3239;48.714;9.472;2023-05-10T05:36:21;98369.78;;;13.87;100.00
6413;BME280;3239;48.714;9.472;2023-05-10T05:38:47;98366.13;;;13.92;100.00
6413;BME280;3239;48.714;9.472;2023-05-10T05:41:13;98352.91;;;13.91;100.00
6413;BME280;3239;48.714;9.472;2023-05-10T05:43:39;98339.88;;;13.91;100.00
6413;BME280;3239;48.714;9.472;2023-05-10T05:46:05;98326.19;;;13.78;100.00
6413;BME280;3239;48.714;9.472;2023-05-10T05:48:31;98318.38;;;13.90;100.00
6413;BME280;3239;48.714;9.472;2023-05-10T05:50:57;98318.25;;;14.03;100.00
6413;BME280;3239;48.714;9.472;2023-05-10T05:53:23;98306.47;;;13.95;100.00
6413;BME280;3239;48.714;9.472;2023-05-10T05:55:57;98304.69;;;14.05;100.00
6413;BME280;3239;48.714;9.472;2023-05-10T05:58:25;98294.03;;;14.09;100.00
6413;BME280;3239;48.714;9.472;2023-05-10T06:00:51;98292.22;;;14.11;100.00
6413;BME280;3239;48.714;9.472;2023-05-10T06:03:20;98285.63;;;14.14;100.00
6413;BME280;3239;48.714;9.472;2023-05-10T06:05:47;98284.53;;;14.17;100.00
6413;BME280;3239;48.714;9.472;2023-05-10T06:08:12;98277.81;;;13.98;100.00
6413;BME280;3239;48.714;9.472;2023-05-10T06:10:38;98272.88;;;13.96;100.00
6413;BME280;3239;48.714;9.472;2023-05-10T06:13:04;98275.03;;;13.90;100.00
6413;BME280;3239;48.714;9.472;2023-05-10T06:15:30;98260.41;;;13.67;100.00
6413;BME280;3239;48.714;9.472;2023-05-10T06:17:55;98274.41;;;13.77;100.00
6413;BME280;3239;48.714;9.472;2023-05-10T06:20:21;98284.00;;;13.83;100.00
6413;BME280;3239;48.714;9.472;2023-05-10T06:22:47;98288.94;;;13.77;100.00
6413;BME280;3239;48.714;9.472;2023-05-10T06:25:13;98298.53;;;13.84;100.00
6413;BME280;3239;48.714;9.472;2023-05-10T06:27:40;98308.97;;;13.85;100.00
6413;BME280;3239;48.714;9.472;2023-05-10T06:30:08;98307.53;;;13.92;100.00
6413;BME280;3239;48.714;9.472;2023-05-10T06:32:34;98310.75;;;14.03;100.00
6413;BME280;3239;48.714;9.472;2023-05-10T06:35:00;98319.97;;;14.13;100.00
6413;BME280;3239;48.714;9.472;2023-05-10T06:37:26;98319.09;;;13.90;100.00
6413;BME280;3239;48.714;9.472;2023-05-10T06:39:51;98314.53;;;13.93;100.00
6413;BME280;3239;48.714;9.472;2023-05-10T06:42:17;98320.31;;;14.10;100.00
6413;BME280;3239;48.714;9.472;2023-05-10T06:44:43;98330.09;;;14.18;100.00
6413;BME280;3239;48.714;9.472;2023-05-10T06:47:09;98323.63;;;14.08;100.00
6413;BME280;3239;48.714;9.472;2023-05-10T06:49:35;98330.06;;;14.11;100.00
6413;BME280;3239;48.714;9.472;2023-05-10T06:52:00;98321.44;;;14.14;100.00
6413;BME280;3239;48.714;9.472;2023-05-10T06:54:27;98321.22;;;14.05;100.00
6413;BME280;3239;48.714;9.472;2023-05-10T06:56:53;98320.13;;;14.08;100.00
6413;BME280;3239;48.714;9.472;2023-05-10T06:59:19;98319.00;;;14.03;100.00
6413;BME280;3239;48.714;9.472;2023-05-10T07:01:47;98314.44;;;14.06;100.00
6413;BME280;3239;48.714;9.472;2023-05-10T07:04:12;98309.41;;;13.97;100.00
6413;BME280;3239;48.714;9.472;2023-05-10T07:06:39;98306.34;;;14.08;100.00
6413;BME280;3239;48.714;9.472;2023-05-10T07:09:04;98308.16;;;14.05;100.00
6413;BME280;3239;48.714;9.472;2023-05-10T07:11:30;98306.72;;;14.12;100.00
6413;BME280;3239;48.714;9.472;2023-05-10T07:13:56;98306.13;;;13.98;100.00
6413;BME280;3239;48.714;9.472;2023-05-10T07:16:22;98305.00;;;13.94;100.00
6413;BME280;3239;48.714;9.472;2023-05-10T07:18:47;98303.47;;;13.85;100.00
6413;BME280;3239;48.714;9.472;2023-05-10T07:21:13;98312.91;;;13.97;100.00
6413;BME280;3239;48.714;9.472;2023-05-10T07:23:39;98308.34;;;14.00;100.00
6413;BME280;3239;48.714;9.472;2023-05-10T07:26:04;98317.19;;;14.06;100.00
6413;BME280;3239;48.714;9.472;2023-05-10T07:28:30;98314.56;;;14.00;100.00
6413;BME280;3239;48.714;9.472;2023-05-10T07:30:56;98314.34;;;13.91;100.00
6413;BME280;3239;48.714;9.472;2023-05-10T07:33:22;98316.38;;;13.98;100.00
6413;BME280;3239;48.714;9.472;2023-05-10T07:35:47;98323.88;;;13.90;100.00
6413;BME280;3239;48.714;9.472;2023-05-10T07:38:13;98327.34;;;13.83;100.00
6413;BME280;3239;48.714;9.472;2023-05-10T07:40:40;98320.16;;;13.80;100.00
6413;BME280;3239;48.714;9.472;2023-05-10T07:43:05;98327.22;;;13.96;100.00
6413;BME280;3239;48.714;9.472;2023-05-10T07:45:32;98336.59;;;14.00;100.00
6413;BME280;3239;48.714;9.472;2023-05-10T07:47:58;98336.78;;;13.95;100.00
6413;BME280;3239;48.714;9.472;2023-05-10T07:50:24;98331.41;;;13.89;100.00
6413;BME280;3239;48.714;9.472;2023-05-10T07:52:49;98333.28;;;13.94;100.00
6413;BME280;3239;48.714;9.472;2023-05-10T07:55:15;98326.19;;;14.14;100.00
6413;BME280;3239;48.714;9.472;2023-05-10T07:57:42;98321.31;;;14.27;100.00
6413;BME280;3239;48.714;9.472;2023-05-10T08:00:08;98332.28;;;14.55;100.00
6413;BME280;3239;48.714;9.472;2023-05-10T08:02:35;98317.16;;;14.41;100.00
6413;BME280;3239;48.714;9.472;2023-05-10T08:05:01;98298.44;;;14.47;100.00
6413;BME280;3239;48.714;9.472;2023-05-10T08:07:27;98283.25;;;14.69;100.00
6413;BME280;3239;48.714;9.472;2023-05-10T08:09:52;98286.03;;;14.99;100.00
6413;BME280;3239;48.714;9.472;2023-05-10T08:12:18;98277.03;;;15.06;100.00
6413;BME280;3239;48.714;9.472;2023-05-10T08:14:44;98280.88;;;15.18;100.00
6413;BME280;3239;48.714;9.472;2023-05-10T08:17:10;98267.47;;;15.14;100.00
6413;BME280;3239;48.714;9.472;2023-05-10T08:19:36;98254.22;;;15.20;100.00
6413;BME280;3239;48.714;9.472;2023-05-10T08:22:01;98244.47;;;15.19;100.00
6413;BME280;3239;48.714;9.472;2023-05-10T08:24:27;98243.34;;;15.30;100.00
6413;BME280;3239;48.714;9.472;2023-05-10T08:26:53;98221.09;;;15.43;100.00
6413;BME280;3239;48.714;9.472;2023-05-10T08:29:19;98212.78;;;15.50;100.00
6413;BME280;3239;48.714;9.472;2023-05-10T08:31:44;98186.88;;;15.08;100.00
6413;BME280;3239;48.714;9.472;2023-05-10T08:34:10;98153.81;;;14.71;100.00
6413;BME280;3239;48.714;9.472;2023-05-10T08:36:36;98150.88;;;14.76;100.00
6413;BME280;3239;48.714;9.472;2023-05-10T08:39:02;98137.25;;;14.71;100.00
6413;BME280;3239;48.714;9.472;2023-05-10T08:41:28;98129.72;;;14.64;100.00
6413;BME280;3239;48.714;9.472;2023-05-10T08:43:55;98121.25;;;14.62;100.00
6413;BME280;3239;48.714;9.472;2023-05-10T08:46:22;98106.75;;;14.54;100.00
6413;BME280;3239;48.714;9.472;2023-05-10T08:48:50;98098.47;;;14.76;100.00
6413;BME280;3239;48.714;9.472;2023-05-10T08:51:22;98100.84;;;14.95;100.00
6413;BME280;3239;48.714;9.472;2023-05-10T08:53:49;98115.84;;;15.16;100.00
6413;BME280;3239;48.714;9.472;2023-05-10T08:56:15;98112.53;;;15.33;100.00
6413;BME280;3239;48.714;9.472;2023-05-10T08:58:43;98116.94;;;15.28;100.00
6413;BME280;3239;48.714;9.472;2023-05-10T09:01:09;98093.72;;;15.31;100.00
6413;BME280;3239;48.714;9.472;2023-05-10T09:03:38;98090.00;;;15.83;100.00
6413;BME280;3239;48.714;9.472;2023-05-10T09:06:04;98093.34;;;16.06;100.00
6413;BME280;3239;48.714;9.472;2023-05-10T09:08:31;98077.59;;;16.48;100.00
6413;BME280;3239;48.714;9.472;2023-05-10T09:10:57;98064.19;;;16.62;100.00
6413;BME280;3239;48.714;9.472;2023-05-10T09:13:23;98038.47;;;16.27;100.00
6413;BME280;3239;48.714;9.472;2023-05-10T09:15:50;98034.91;;;16.42;100.00
6413;BME280;3239;48.714;9.472;2023-05-10T09:18:16;98026.06;;;15.62;100.00
6413;BME280;3239;48.714;9.472;2023-05-10T09:20:42;98010.69;;;15.44;100.00
6413;BME280;3239;48.714;9.472;2023-05-10T09:23:08;98037.06;;;15.30;100.00
6413;BME280;3239;48.714;9.472;2023-05-10T09:25:34;98022.00;;;15.24;100.00
6413;BME280;3239;48.714;9.472;2023-05-10T09:28:00;98039.25;;;15.39;100.00
6413;BME280;3239;48.714;9.472;2023-05-10T09:30:28;98021.69;;;15.12;100.00
6413;BME280;3239;48.714;9.472;2023-05-10T09:32:56;98032.09;;;15.29;100.00
6413;BME280;3239;48.714;9.472;2023-05-10T09:35:26;98033.00;;;15.31;100.00
6413;BME280;3239;48.714;9.472;2023-05-10T09:37:56;98032.72;;;15.12;100.00
6413;BME280;3239;48.714;9.472;2023-05-10T09:40:25;98043.16;;;15.21;100.00
6413;BME280;3239;48.714;9.472;2023-05-10T09:43:01;98033.03;;;15.24;100.00
6413;BME280;3239;48.714;9.472;2023-05-10T09:45:29;98019.25;;;15.16;100.00
6413;BME280;3239;48.714;9.472;2023-05-10T09:47:56;98023.88;;;15.14;100.00
6413;BME280;3239;48.714;9.472;2023-05-10T09:50:23;98034.56;;;15.10;100.00
6413;BME280;3239;48.714;9.472;2023-05-10T09:53:01;98046.38;;;14.95;100.00
6413;BME280;3239;48.714;9.472;2023-05-10T09:55:43;98064.19;;;15.02;100.00
6413;BME280;3239;48.714;9.472;2023-05-10T09:58:14;98106.28;;;15.17;100.00
6413;BME280;3239;48.714;9.472;2023-05-10T10:00:44;98137.38;;;15.10;100.00
6413;BME280;3239;48.714;9.472;2023-05-10T10:03:22;98153.56;;;15.14;100.00
6413;BME280;3239;48.714;9.472;2023-05-10T10:05:48;98164.44;;;15.04;100.00
6413;BME280;3239;48.714;9.472;2023-05-10T10:08:15;98169.03;;;15.17;100.00
6413;BME280;3239;48.714;9.472;2023-05-10T10:10:42;98175.84;;;15.16;100.00
6413;BME280;3239;48.714;9.472;2023-05-10T10:13:10;98191.09;;;15.17;100.00
6413;BME280;3239;48.714;9.472;2023-05-10T10:15:36;98206.19;;;15.16;100.00
6413;BME280;3239;48.714;9.472;2023-05-10T10:18:03;98205.66;;;15.02;100.00
6413;BME280;3239;48.714;9.472;2023-05-10T10:20:30;98208.22;;;15.08;100.00
6413;BME280;3239;48.714;9.472;2023-05-10T10:22:56;98198.84;;;15.03;100.00
6413;BME280;3239;48.714;9.472;2023-05-10T10:25:22;98197.53;;;15.19;100.00
6413;BME280;3239;48.714;9.472;2023-05-10T10:30:41;98195.06;;;15.61;100.00
6413;BME280;3239;48.714;9.472;2023-05-10T10:36:12;98158.53;;;16.49;100.00
6413;BME280;3239;48.714;9.472;2023-05-10T10:41:37;98112.97;;;16.50;100.00
6413;BME280;3239;48.714;9.472;2023-05-10T10:50:04;98088.03;;;16.74;100.00
6413;BME280;3239;48.714;9.472;2023-05-10T10:52:38;98071.97;;;17.14;100.00
6413;BME280;3239;48.714;9.472;2023-05-10T10:55:18;98060.13;;;17.31;100.00
6413;BME280;3239;48.714;9.472;2023-05-10T11:00:40;98029.06;;;16.72;100.00
6413;BME280;3239;48.714;9.472;2023-05-10T11:03:14;98026.03;;;17.11;100.00
6413;BME280;3239;48.714;9.472;2023-05-10T11:05:48;98024.81;;;17.22;100.00
6413;BME280;3239;48.714;9.472;2023-05-10T11:08:28;98024.03;;;17.91;100.00
6413;BME280;3239;48.714;9.472;2023-05-10T11:16:20;98003.91;;;17.81;100.00
6413;BME280;3239;48.714;9.472;2023-05-10T11:19:10;97996.91;;;16.93;100.00
6413;BME280;3239;48.714;9.472;2023-05-10T11:24:37;98021.09;;;16.76;100.00
6413;BME280;3239;48.714;9.472;2023-05-10T11:27:03;98028.75;;;16.85;100.00
6413;BME280;3239;48.714;9.472;2023-05-10T11:29:29;98043.13;;;16.66;100.00
6413;BME280;3239;48.714;9.472;2023-05-10T11:31:58;98069.38;;;16.33;100.00
6413;BME280;3239;48.714;9.472;2023-05-10T11:34:29;98076.28;;;16.25;100.00
6413;BME280;3239;48.714;9.472;2023-05-10T11:36:57;98091.47;;;15.84;100.00
6413;BME280;3239;48.714;9.472;2023-05-10T11:39:31;98084.38;;;15.74;100.00
6413;BME280;3239;48.714;9.472;2023-05-10T11:41:58;98097.47;;;15.66;100.00
6413;BME280;3239;48.714;9.472;2023-05-10T11:44:33;98121.56;;;15.33;100.00
6413;BME280;3239;48.714;9.472;2023-05-10T11:47:00;98143.97;;;15.22;100.00
6413;BME280;3239;48.714;9.472;2023-05-10T11:49:26;98157.84;;;14.62;100.00
6413;BME280;3239;48.714;9.472;2023-05-10T11:51:52;98180.28;;;14.51;100.00
6413;BME280;3239;48.714;9.472;2023-05-10T11:54:17;98177.31;;;14.27;100.00
6413;BME280;3239;48.714;9.472;2023-05-10T11:56:43;98187.59;;;14.34;100.00
6413;BME280;3239;48.714;9.472;2023-05-10T11:59:10;98192.03;;;14.37;100.00
6413;BME280;3239;48.714;9.472;2023-05-10T12:01:36;98198.25;;;14.30;100.00
6413;BME280;3239;48.714;9.472;2023-05-10T12:04:02;98173.22;;;13.62;100.00
6413;BME280;3239;48.714;9.472;2023-05-10T12:06:30;98171.94;;;13.63;100.00
6413;BME280;3239;48.714;9.472;2023-05-10T12:08:57;98182.91;;;13.56;100.00
6413;BME280;3239;48.714;9.472;2023-05-10T12:11:28;98177.72;;;13.45;100.00
6413;BME280;3239;48.714;9.472;2023-05-10T12:13:55;98162.28;;;13.06;100.00
6413;BME280;3239;48.714;9.472;2023-05-10T12:16:28;98175.16;;;12.91;100.00
6413;BME280;3239;48.714;9.472;2023-05-10T12:19:00;98204.63;;;13.03;100.00
6413;BME280;3239;48.714;9.472;2023-05-10T12:21:28;98208.78;;;12.76;100.00
6413;BME280;3239;48.714;9.472;2023-05-10T12:24:01;98218.38;;;13.03;100.00
6413;BME280;3239;48.714;9.472;2023-05-10T12:26:28;98238.03;;;13.07;100.00
6413;BME280;3239;48.714;9.472;2023-05-10T12:29:00;98251.34;;;13.24;100.00
6413;BME280;3239;48.714;9.472;2023-05-10T12:31:51;98266.47;;;13.38;100.00
6413;BME280;3239;48.714;9.472;2023-05-10T12:34:25;98276.50;;;13.28;100.00
6413;BME280;3239;48.714;9.472;2023-05-10T12:36:55;98274.91;;;13.12;100.00
6413;BME280;3239;48.714;9.472;2023-05-10T12:39:21;98286.16;;;13.21;100.00
6413;BME280;3239;48.714;9.472;2023-05-10T12:41:47;98300.38;;;13.61;100.00
6413;BME280;3239;48.714;9.472;2023-05-10T12:44:12;98292.19;;;13.68;100.00
6413;BME280;3239;48.714;9.472;2023-05-10T12:46:38;98294.56;;;14.00;100.00
6413;BME280;3239;48.714;9.472;2023-05-10T12:49:04;98274.72;;;13.94;100.00
6413;BME280;3239;48.714;9.472;2023-05-10T12:51:30;98243.75;;;13.73;100.00
6413;BME280;3239;48.714;9.472;2023-05-10T12:53:56;98232.19;;;13.74;100.00
6413;BME280;3239;48.714;9.472;2023-05-10T12:56:22;98227.50;;;13.90;100.00
6413;BME280;3239;48.714;9.472;2023-05-10T12:58:48;98213.38;;;13.93;100.00
6413;BME280;3239;48.714;9.472;2023-05-10T13:01:14;98208.28;;;14.12;100.00
6413;BME280;3239;48.714;9.472;2023-05-10T13:03:40;98199.56;;;14.44;100.00
6413;BME280;3239;48.714;9.472;2023-05-10T13:06:06;98172.72;;;14.29;100.00
6413;BME280;3239;48.714;9.472;2023-05-10T13:08:33;98171.63;;;14.47;100.00
6413;BME280;3239;48.714;9.472;2023-05-10T13:11:02;98161.38;;;14.78;100.00
6413;BME280;3239;48.714;9.472;2023-05-10T13:13:28;98139.06;;;14.98;100.00
6413;BME280;3239;48.714;9.472;2023-05-10T13:15:54;98144.91;;;15.17;100.00
6413;BME280;3239;48.714;9.472;2023-05-10T13:18:20;98143.78;;;15.28;100.00
6413;BME280;3239;48.714;9.472;2023-05-10T13:20:46;98149.66;;;15.47;100.00
6413;BME280;3239;48.714;9.472;2023-05-10T13:23:11;98135.03;;;14.99;100.00
6413;BME280;3239;48.714;9.472;2023-05-10T13:25:37;98142.03;;;14.85;100.00
6413;BME280;3239;48.714;9.472;2023-05-10T13:28:03;98156.00;;;15.10;100.00
6413;BME280;3239;48.714;9.472;2023-05-10T13:30:29;98157.09;;;14.84;100.00
6413;BME280;3239;48.714;9.472;2023-05-10T13:32:55;98164.41;;;15.27;100.00
6413;BME280;3239;48.714;9.472;2023-05-10T13:35:20;98154.88;;;15.05;100.00
6413;BME280;3239;48.714;9.472;2023-05-10T13:37:46;98157.63;;;14.98;100.00
6413;BME280;3239;48.714;9.472;2023-05-10T13:40:12;98142.72;;;15.23;100.00
6413;BME280;3239;48.714;9.472;2023-05-10T13:42:38;98130.47;;;15.56;100.00
6413;BME280;3239;48.714;9.472;2023-05-10T13:45:05;98094.63;;;15.81;100.00
6413;BME280;3239;48.714;9.472;2023-05-10T13:47:31;98077.97;;;15.96;100.00
6413;BME280;3239;48.714;9.472;2023-05-10T13:49:57;98062.34;;;16.15;100.00